createdAt,value
2023-05-19T00:01:51.306Z,28.06
2023-05-19T00:04:55.353Z,27.95
2023-05-19T00:08:00.721Z,27.85
2023-05-19T00:11:04.464Z,27.74
2023-05-19T00:14:09.876Z,27.56
2023-05-19T00:17:13.451Z,27.57
2023-05-19T00:20:17.400Z,27.57
2023-05-19T00:23:20.971Z,27.56
2023-05-19T00:26:25.290Z,27.67
2023-05-19T00:29:29.219Z,27.53
2023-05-19T00:32:32.987Z,27.60
2023-05-19T00:35:36.861Z,27.50
2023-05-19T00:38:40.478Z,27.51
2023-05-19T00:41:44.062Z,27.68
2023-05-19T00:44:47.577Z,27.72
2023-05-19T00:47:50.738Z,27.47
2023-05-19T00:51:02.338Z,27.59
2023-05-19T00:54:06.435Z,27.54
2023-05-19T00:57:09.993Z,27.57
2023-05-19T01:00:14.494Z,27.55
2023-05-19T01:03:19.210Z,27.47
2023-05-19T01:06:23.662Z,27.35
2023-05-19T01:09:27.137Z,27.36
2023-05-19T01:12:31.248Z,27.00
2023-05-19T01:15:41.423Z,26.70
2023-05-19T01:19:16.830Z,26.54
2023-05-19T01:22:33.413Z,26.62
2023-05-19T01:25:49.125Z,26.77
2023-05-19T01:29:08.821Z,27.00
2023-05-19T01:32:13.738Z,26.75
2023-05-19T01:35:18.573Z,26.38
2023-05-19T01:38:27.051Z,26.12
2023-05-19T01:41:31.787Z,26.10
2023-05-19T01:44:35.284Z,25.97
2023-05-19T01:47:42.687Z,25.98
2023-05-19T01:50:46.327Z,25.84
2023-05-19T01:53:51.932Z,25.76
2023-05-19T01:57:30.486Z,25.78
2023-05-19T02:00:43.437Z,25.90
2023-05-19T02:04:06.842Z,26.15
2023-05-19T02:07:26.322Z,26.22
2023-05-19T02:10:31.451Z,26.13
2023-05-19T02:13:38.858Z,25.85
2023-05-19T02:16:45.585Z,25.15
2023-05-19T02:19:49.419Z,25.05
2023-05-19T02:22:53.166Z,25.19
2023-05-19T02:25:56.970Z,24.90
2023-05-19T02:29:00.678Z,24.67
2023-05-19T02:32:04.157Z,24.96
2023-05-19T02:35:07.796Z,25.06
2023-05-19T02:38:11.366Z,25.47
2023-05-19T02:41:14.944Z,25.25
2023-05-19T02:44:18.386Z,25.29
2023-05-19T02:47:21.690Z,25.06
2023-05-19T02:50:25.027Z,24.86
2023-05-19T02:53:29.143Z,24.71
2023-05-19T02:56:32.976Z,24.61
2023-05-19T02:59:36.241Z,24.57
2023-05-19T03:02:42.687Z,24.42
2023-05-19T03:05:48.424Z,24.31
2023-05-19T03:08:52.079Z,24.48
2023-05-19T03:11:55.437Z,24.68
2023-05-19T03:15:00.115Z,24.38
2023-05-19T03:18:03.412Z,24.01
2023-05-19T03:21:07.069Z,24.10
2023-05-19T03:24:12.572Z,24.22
2023-05-19T03:27:15.838Z,24.20
2023-05-19T03:30:19.248Z,24.08
2023-05-19T03:33:23.268Z,24.33
2023-05-19T03:36:27.656Z,24.30
2023-05-19T03:39:30.864Z,24.00
2023-05-19T03:42:34.060Z,24.05
2023-05-19T03:45:37.648Z,23.72
2023-05-19T03:48:41.171Z,23.58
2023-05-19T03:51:44.722Z,23.52
2023-05-19T03:54:48.624Z,23.61
2023-05-19T03:57:52.392Z,23.75
2023-05-19T04:00:55.735Z,23.79
2023-05-19T04:04:16.809Z,23.78
2023-05-19T04:07:42.831Z,23.48
2023-05-19T04:10:55.018Z,23.43
2023-05-19T04:14:06.144Z,23.31
2023-05-19T04:17:09.537Z,23.25
2023-05-19T04:20:13.389Z,23.40
2023-05-19T04:23:18.931Z,23.53
2023-05-19T04:26:23.125Z,23.59
2023-05-19T04:29:26.720Z,23.49
2023-05-19T04:32:30.390Z,23.58
2023-05-19T04:35:33.858Z,23.39
2023-05-19T04:38:38.058Z,23.46
2023-05-19T04:41:41.926Z,23.51
2023-05-19T04:44:45.445Z,23.85
2023-05-19T04:47:48.868Z,23.66
2023-05-19T04:50:52.354Z,23.62
2023-05-19T04:53:59.358Z,23.55
2023-05-19T04:57:02.595Z,23.35
2023-05-19T05:00:07.594Z,23.21
2023-05-19T05:03:10.948Z,23.32
2023-05-19T05:06:14.576Z,23.39
2023-05-19T05:09:18.364Z,23.35
2023-05-19T05:12:22.874Z,23.36
2023-05-19T05:15:26.520Z,23.43
2023-05-19T05:18:30.079Z,23.33
2023-05-19T05:21:36.669Z,23.41
2023-05-19T05:24:40.077Z,23.37
2023-05-19T05:27:44.048Z,23.32
2023-05-19T05:30:47.541Z,23.25
2023-05-19T05:33:50.937Z,23.29
2023-05-19T05:36:54.833Z,22.97
2023-05-19T05:39:58.069Z,22.97
2023-05-19T05:43:02.188Z,23.12
2023-05-19T05:46:06.325Z,23.23
2023-05-19T05:49:09.915Z,23.11
2023-05-19T05:52:15.302Z,22.91
2023-05-19T05:55:21.310Z,22.85
2023-05-19T05:58:24.733Z,22.74
2023-05-19T06:01:28.881Z,22.76
2023-05-19T06:04:32.800Z,22.65
2023-05-19T06:07:35.992Z,22.52
2023-05-19T06:10:39.196Z,22.78
2023-05-19T06:13:42.767Z,22.79
2023-05-19T06:16:46.852Z,22.61
2023-05-19T06:19:50.718Z,22.54
2023-05-19T06:22:53.873Z,22.60
2023-05-19T06:25:57.311Z,22.54
2023-05-19T06:29:00.635Z,22.63
2023-05-19T06:32:04.129Z,22.60
2023-05-19T06:35:08.046Z,22.68
2023-05-19T06:38:11.565Z,22.69
2023-05-19T06:41:15.044Z,22.66
2023-05-19T06:44:20.449Z,22.62
2023-05-19T06:47:24.733Z,22.60
2023-05-19T06:50:28.209Z,22.55
2023-05-19T06:53:32.193Z,22.53
2023-05-19T06:56:35.663Z,22.51
2023-05-19T06:59:38.929Z,22.46
2023-05-19T07:02:44.606Z,22.35
2023-05-19T07:05:48.237Z,22.24
2023-05-19T07:08:51.555Z,22.08
2023-05-19T07:11:55.680Z,22.06
2023-05-19T07:14:59.307Z,22.30
2023-05-19T07:18:03.179Z,22.33
2023-05-19T07:21:06.517Z,22.25
2023-05-19T07:24:09.809Z,22.07
2023-05-19T07:27:15.486Z,21.96
2023-05-19T07:30:18.823Z,21.95
2023-05-19T07:33:24.370Z,21.81
2023-05-19T07:36:27.790Z,21.75
2023-05-19T07:39:31.002Z,21.56
2023-05-19T07:42:34.516Z,21.72
2023-05-19T07:45:38.468Z,21.69
2023-05-19T07:48:41.675Z,21.64
2023-05-19T07:51:44.944Z,21.57
2023-05-19T07:54:48.368Z,21.55
2023-05-19T07:57:52.091Z,21.27
2023-05-19T08:00:58.989Z,21.17
2023-05-19T08:04:04.675Z,21.40
2023-05-19T08:07:08.092Z,21.52
2023-05-19T08:10:11.507Z,21.68
2023-05-19T08:13:14.672Z,21.53
2023-05-19T08:16:20.839Z,21.37
2023-05-19T08:19:26.164Z,21.39
2023-05-19T08:22:29.473Z,21.49
2023-05-19T08:25:33.344Z,21.45
2023-05-19T08:28:38.772Z,21.45
2023-05-19T08:31:42.053Z,21.56
2023-05-19T08:34:45.419Z,21.47
2023-05-19T08:37:49.319Z,21.42
2023-05-19T08:40:53.328Z,21.60
2023-05-19T08:43:57.902Z,21.88
2023-05-19T08:47:05.477Z,21.67
2023-05-19T08:50:09.860Z,21.63
2023-05-19T08:53:33.933Z,21.67
2023-05-19T08:56:38.667Z,21.64
2023-05-19T08:59:42.423Z,21.60
2023-05-19T09:02:55.413Z,21.59
2023-05-19T09:06:09.886Z,21.37
2023-05-19T09:09:13.341Z,21.45
2023-05-19T09:12:17.167Z,21.39
2023-05-19T09:15:20.767Z,21.39
2023-05-19T09:18:25.939Z,21.19
2023-05-19T09:21:35.162Z,21.13
2023-05-19T09:24:38.471Z,21.20
2023-05-19T09:27:41.702Z,21.45
2023-05-19T09:30:45.011Z,21.41
2023-05-19T09:33:48.626Z,21.37
2023-05-19T09:36:52.121Z,21.22
2023-05-19T09:39:55.666Z,21.03
2023-05-19T09:42:59.149Z,20.98
2023-05-19T09:46:10.578Z,20.88
2023-05-19T09:49:18.954Z,20.93
2023-05-19T09:52:22.457Z,20.99
2023-05-19T09:55:30.321Z,21.20
2023-05-19T09:58:34.338Z,21.29
2023-05-19T10:01:38.024Z,21.28
2023-05-19T10:04:41.401Z,21.37
2023-05-19T10:07:45.544Z,21.38
2023-05-19T10:10:49.000Z,21.29
2023-05-19T10:13:52.455Z,21.25
2023-05-19T10:16:58.488Z,21.29
2023-05-19T10:20:02.091Z,20.99
2023-05-19T10:23:05.734Z,20.99
2023-05-19T10:26:09.674Z,21.15
2023-05-19T10:29:15.911Z,21.04
2023-05-19T10:32:23.939Z,21.10
2023-05-19T10:35:47.189Z,21.20
2023-05-19T10:38:59.908Z,21.11
2023-05-19T10:42:30.247Z,21.14
2023-05-19T10:45:37.709Z,21.23
2023-05-19T10:48:45.641Z,21.29
2023-05-19T10:51:49.252Z,21.11
2023-05-19T10:54:52.736Z,21.25
2023-05-19T10:57:57.074Z,21.26
2023-05-19T11:01:03.999Z,21.21
2023-05-19T11:04:09.432Z,21.23
2023-05-19T11:07:19.600Z,21.10
2023-05-19T11:10:26.554Z,21.19
2023-05-19T11:13:30.716Z,21.27
2023-05-19T11:16:35.012Z,21.10
2023-05-19T11:19:38.608Z,21.14
2023-05-19T11:22:41.826Z,21.16
2023-05-19T11:25:49.434Z,21.14
2023-05-19T11:28:52.924Z,21.18
2023-05-19T11:31:56.998Z,21.11
2023-05-19T11:35:00.685Z,21.52
2023-05-19T11:38:04.468Z,21.74
2023-05-19T11:41:11.775Z,21.61
2023-05-19T11:44:15.260Z,21.66
2023-05-19T11:47:18.491Z,21.75
2023-05-19T11:50:21.870Z,21.41
2023-05-19T11:53:25.238Z,21.16
2023-05-19T11:56:28.671Z,21.17
2023-05-19T11:59:36.437Z,21.30
2023-05-19T12:02:39.742Z,21.35
2023-05-19T12:05:47.715Z,21.21
2023-05-19T12:08:56.147Z,21.27
2023-05-19T12:12:02.464Z,21.37
2023-05-19T12:15:06.570Z,21.45
2023-05-19T12:18:10.022Z,21.66
2023-05-19T12:21:13.397Z,21.97
2023-05-19T12:24:17.842Z,22.13
2023-05-19T12:27:24.288Z,22.18
2023-05-19T12:30:28.925Z,22.28
2023-05-19T12:33:35.747Z,22.38
2023-05-19T12:36:39.359Z,22.46
2023-05-19T12:39:43.597Z,22.66
2023-05-19T12:42:47.334Z,23.00
2023-05-19T12:45:50.820Z,23.16
2023-05-19T12:49:02.028Z,23.18
2023-05-19T12:52:11.913Z,23.62
2023-05-19T12:55:16.810Z,23.74
2023-05-19T12:58:20.331Z,23.75
2023-05-19T13:01:24.255Z,23.92
2023-05-19T13:04:27.792Z,24.32
2023-05-19T13:07:31.220Z,24.51
2023-05-19T13:10:36.842Z,24.61
2023-05-19T13:13:40.617Z,24.90
2023-05-19T13:16:43.929Z,25.25
2023-05-19T13:19:47.507Z,25.63
2023-05-19T13:22:51.521Z,25.47
2023-05-19T13:25:54.733Z,25.55
2023-05-19T13:28:58.745Z,25.47
2023-05-19T13:32:02.259Z,25.83
2023-05-19T13:35:06.121Z,26.21
2023-05-19T13:38:10.999Z,26.32
2023-05-19T13:41:16.125Z,26.48
2023-05-19T13:44:19.534Z,26.69
2023-05-19T13:47:24.405Z,26.91
2023-05-19T13:50:28.205Z,26.19
2023-05-19T13:53:31.633Z,26.40
2023-05-19T13:56:35.136Z,27.05
2023-05-19T13:59:48.966Z,27.26
2023-05-19T14:02:56.755Z,27.31
2023-05-19T14:06:00.171Z,27.71
2023-05-19T14:09:06.807Z,27.78
2023-05-19T14:12:12.864Z,28.24
2023-05-19T14:15:16.301Z,28.00
2023-05-19T14:18:19.552Z,27.93
2023-05-19T14:21:23.020Z,27.86
2023-05-19T14:24:26.384Z,28.01
2023-05-19T14:27:29.754Z,28.44
2023-05-19T14:30:33.473Z,29.05
2023-05-19T14:33:36.840Z,28.93
2023-05-19T14:36:40.101Z,28.91
2023-05-19T14:39:43.342Z,29.07
2023-05-19T14:42:46.739Z,28.27
2023-05-19T14:45:53.442Z,28.18
2023-05-19T14:48:58.929Z,28.70
2023-05-19T14:52:02.451Z,28.99
2023-05-19T14:55:06.320Z,28.62
2023-05-19T14:58:26.730Z,29.24
2023-05-19T15:01:31.356Z,29.79
2023-05-19T15:04:37.016Z,29.45
2023-05-19T15:07:40.275Z,29.20
2023-05-19T15:10:44.523Z,28.94
2023-05-19T15:13:47.898Z,28.77
2023-05-19T15:16:51.204Z,29.03
2023-05-19T15:19:56.832Z,29.63
2023-05-19T15:23:00.161Z,29.24
2023-05-19T15:26:03.558Z,29.26
2023-05-19T15:29:09.475Z,29.32
2023-05-19T15:32:13.543Z,30.05
2023-05-19T15:35:20.468Z,30.15
2023-05-19T15:38:23.707Z,30.61
2023-05-19T15:41:27.059Z,30.18
2023-05-19T15:44:30.416Z,30.32
2023-05-19T15:47:33.780Z,30.11
2023-05-19T15:50:37.478Z,30.18
2023-05-19T15:53:41.096Z,30.09
2023-05-19T15:56:44.317Z,30.70
2023-05-19T15:59:47.912Z,30.46
2023-05-19T16:02:51.316Z,30.38
2023-05-19T16:05:55.410Z,30.64
2023-05-19T16:08:58.777Z,31.08
2023-05-19T16:12:02.129Z,30.61
2023-05-19T16:15:06.938Z,30.53
2023-05-19T16:18:10.414Z,30.51
2023-05-19T16:21:13.775Z,30.58
2023-05-19T16:24:20.113Z,30.52
2023-05-19T16:27:23.318Z,31.09
2023-05-19T16:30:26.558Z,30.45
2023-05-19T16:33:30.099Z,31.14
2023-05-19T16:36:34.714Z,31.13
2023-05-19T16:39:37.987Z,30.65
2023-05-19T16:42:42.374Z,30.68
2023-05-19T16:45:46.222Z,30.64
2023-05-19T16:48:49.586Z,31.26
2023-05-19T16:51:56.638Z,31.08
2023-05-19T16:55:00.081Z,31.09
2023-05-19T16:58:05.670Z,32.12
2023-05-19T17:01:11.392Z,32.52
2023-05-19T17:04:14.634Z,31.94
2023-05-19T17:07:18.624Z,31.22
2023-05-19T17:10:21.925Z,31.50
2023-05-19T17:13:25.727Z,31.55
2023-05-19T17:16:29.022Z,32.32
2023-05-19T17:19:33.326Z,32.82
2023-05-19T17:22:36.937Z,32.71
2023-05-19T17:25:40.373Z,32.33
2023-05-19T17:28:43.660Z,31.80
2023-05-19T17:31:47.356Z,32.07
2023-05-19T17:34:52.666Z,32.18
2023-05-19T17:37:56.250Z,32.91
2023-05-19T17:41:02.987Z,32.48
2023-05-19T17:44:06.367Z,32.52
2023-05-19T17:47:09.863Z,31.88
2023-05-19T17:50:13.238Z,32.36
2023-05-19T17:53:16.958Z,32.21
2023-05-19T17:56:21.499Z,32.12
2023-05-19T17:59:25.348Z,31.96
2023-05-19T18:02:29.079Z,32.54
2023-05-19T18:05:32.771Z,32.64
2023-05-19T18:08:37.974Z,32.29
2023-05-19T18:11:41.167Z,32.06
2023-05-19T18:14:44.895Z,32.20
2023-05-19T18:17:48.353Z,31.91
2023-05-19T18:20:51.968Z,31.89
2023-05-19T18:23:55.313Z,32.21
2023-05-19T18:26:58.809Z,32.62
2023-05-19T18:30:02.269Z,32.95
2023-05-19T18:33:05.912Z,32.87
2023-05-19T18:36:09.292Z,32.21
2023-05-19T18:39:12.553Z,32.41
2023-05-19T18:42:16.436Z,32.60
2023-05-19T18:45:22.129Z,32.61
2023-05-19T18:48:25.641Z,32.50
2023-05-19T18:51:28.879Z,32.15
2023-05-19T18:54:32.143Z,32.67
2023-05-19T18:57:35.518Z,32.84
2023-05-19T19:00:39.183Z,32.28
2023-05-19T19:03:42.982Z,32.70
2023-05-19T19:06:50.398Z,33.13
2023-05-19T19:09:53.621Z,33.04
2023-05-19T19:12:56.844Z,31.90
2023-05-19T19:16:00.223Z,32.87
2023-05-19T19:19:03.679Z,33.36
2023-05-19T19:22:07.154Z,33.84
2023-05-19T19:25:10.641Z,32.78
2023-05-19T19:28:13.882Z,32.41
2023-05-19T19:31:17.260Z,32.79
2023-05-19T19:34:20.862Z,32.69
2023-05-19T19:37:24.241Z,33.01
2023-05-19T19:40:29.831Z,32.46
2023-05-19T19:43:32.983Z,32.41
2023-05-19T19:46:38.195Z,31.87
2023-05-19T19:49:41.584Z,31.99
2023-05-19T19:52:44.923Z,32.34
2023-05-19T19:55:57.491Z,32.49
2023-05-19T19:59:00.354Z,32.70
2023-05-19T20:02:04.080Z,32.09
2023-05-19T20:05:08.132Z,32.36
2023-05-19T20:08:12.256Z,32.59
2023-05-19T20:11:19.559Z,32.48
2023-05-19T20:14:24.706Z,33.24
2023-05-19T20:17:27.941Z,32.89
2023-05-19T20:20:31.623Z,32.54
2023-05-19T20:23:35.117Z,32.38
2023-05-19T20:26:38.962Z,32.29
2023-05-19T20:29:42.879Z,32.64
2023-05-19T20:32:46.528Z,32.36
2023-05-19T20:35:50.113Z,32.37
2023-05-19T20:38:53.410Z,32.44
2023-05-19T20:41:56.760Z,32.65
2023-05-19T20:45:00.517Z,32.19
2023-05-19T20:48:03.830Z,32.46
2023-05-19T20:51:07.489Z,32.69
2023-05-19T20:54:11.101Z,33.01
2023-05-19T20:57:14.505Z,32.57
2023-05-19T21:00:18.321Z,32.88
2023-05-19T21:03:23.360Z,33.08
2023-05-19T21:06:27.024Z,32.91
2023-05-19T21:09:30.605Z,32.89
2023-05-19T21:12:34.760Z,32.39
2023-05-19T21:15:38.316Z,32.53
2023-05-19T21:18:41.589Z,32.13
2023-05-19T21:21:46.116Z,32.39
2023-05-19T21:24:49.433Z,32.05
2023-05-19T21:27:54.746Z,32.38
2023-05-19T21:30:58.089Z,32.21
2023-05-19T21:34:02.045Z,32.62
2023-05-19T21:37:08.175Z,32.20
2023-05-19T21:40:11.812Z,32.36
2023-05-19T21:43:15.157Z,32.77
2023-05-19T21:46:18.386Z,32.30
2023-05-19T21:49:21.679Z,32.57
2023-05-19T21:52:25.146Z,32.70
2023-05-19T21:55:28.589Z,32.92
2023-05-19T21:58:34.318Z,32.46
2023-05-19T22:01:37.661Z,32.49
2023-05-19T22:04:41.615Z,32.45
2023-05-19T22:07:44.932Z,32.35
2023-05-19T22:10:52.867Z,32.34
2023-05-19T22:13:56.384Z,32.57
2023-05-19T22:16:59.609Z,32.51
2023-05-19T22:20:03.485Z,32.33
2023-05-19T22:23:06.946Z,32.46
2023-05-19T22:26:10.209Z,32.26
2023-05-19T22:29:13.469Z,32.48
2023-05-19T22:32:16.898Z,32.08
2023-05-19T22:35:20.190Z,32.19
2023-05-19T22:38:23.513Z,32.32
2023-05-19T22:41:27.002Z,32.29
2023-05-19T22:44:30.310Z,31.93
2023-05-19T22:47:33.580Z,32.33
2023-05-19T22:50:22.706Z,32.44
2023-05-19T22:53:26.030Z,32.40
2023-05-19T22:56:29.718Z,32.35
2023-05-19T22:59:33.035Z,32.26
2023-05-19T23:02:36.343Z,32.54
2023-05-19T23:05:40.494Z,31.96
2023-05-19T23:08:46.862Z,32.14
2023-05-19T23:11:50.697Z,32.04
2023-05-19T23:14:55.224Z,32.16
2023-05-19T23:17:58.524Z,32.36
2023-05-19T23:21:02.013Z,32.14
2023-05-19T23:24:05.818Z,31.96
2023-05-19T23:27:09.497Z,31.74
2023-05-19T23:30:13.090Z,31.63
2023-05-19T23:33:16.545Z,31.81
2023-05-19T23:36:19.893Z,31.93
2023-05-19T23:39:23.448Z,31.88
2023-05-19T23:42:26.748Z,31.85
2023-05-19T23:45:31.249Z,31.89
2023-05-19T23:48:34.835Z,32.13
2023-05-19T23:51:39.208Z,32.20
2023-05-19T23:54:42.558Z,32.05
2023-05-19T23:57:46.050Z,31.67
